createdAt,value
2019-05-26T00:01:54.542Z,97744.53
2019-05-26T00:03:56.179Z,97753.40
2019-05-26T00:05:57.802Z,97756.32
2019-05-26T00:07:59.435Z,97751.22
2019-05-26T00:10:01.062Z,97755.05
2019-05-26T00:12:02.692Z,97751.66
2019-05-26T00:14:04.331Z,97751.28
2019-05-26T00:16:06.024Z,97760.66
2019-05-26T00:18:07.723Z,97749.23
2019-05-26T00:20:09.378Z,97746.31
2019-05-26T00:22:10.974Z,97711.20
2019-05-26T00:24:12.609Z,97749.75
2019-05-26T00:26:14.263Z,97727.17
2019-05-26T00:28:15.915Z,97742.14
2019-05-26T00:30:17.603Z,97740.30
2019-05-26T00:32:19.230Z,97738.37
2019-05-26T00:34:20.990Z,97735.23
2019-05-26T00:36:22.653Z,97732.11
2019-05-26T00:38:24.299Z,97737.05
2019-05-26T00:40:26.043Z,97727.96
2019-05-26T00:42:27.819Z,97732.89
2019-05-26T00:44:29.501Z,97741.33
2019-05-26T00:46:31.163Z,97739.64
2019-05-26T00:48:32.862Z,97737.59
2019-05-26T00:50:34.549Z,97728.27
2019-05-26T00:52:36.255Z,97726.18
2019-05-26T00:54:37.855Z,97727.11
2019-05-26T00:56:39.558Z,97721.22
2019-05-26T00:58:41.181Z,97720.86
2019-05-26T01:00:42.874Z,97716.27
2019-05-26T01:02:44.487Z,97721.50
2019-05-26T01:04:46.197Z,97724.36
2019-05-26T01:06:47.836Z,97723.57
2019-05-26T01:08:49.490Z,97735.08
2019-05-26T01:10:51.145Z,97734.30
2019-05-26T01:12:52.807Z,97734.66
2019-05-26T01:14:54.435Z,97733.38
2019-05-26T01:16:56.321Z,97726.07
2019-05-26T01:18:57.870Z,97727.25
2019-05-26T01:20:59.567Z,97725.39
2019-05-26T01:23:01.222Z,97724.09
2019-05-26T01:25:02.879Z,97713.45
2019-05-26T01:27:04.553Z,97722.41
2019-05-26T01:29:06.205Z,97718.13
2019-05-26T01:31:07.830Z,97714.33
2019-05-26T01:33:09.442Z,97711.81
2019-05-26T01:35:11.027Z,97715.16
2019-05-26T01:37:12.681Z,97712.23
2019-05-26T01:39:14.383Z,97716.94
2019-05-26T01:41:16.009Z,97717.87
2019-05-26T01:43:17.602Z,97714.05
2019-05-26T01:45:19.293Z,97710.23
2019-05-26T01:47:20.886Z,97709.98
2019-05-26T01:49:22.514Z,97714.58
2019-05-26T01:51:24.220Z,97712.69
2019-05-26T01:53:25.846Z,97714.53
2019-05-26T01:55:27.530Z,97681.01
2019-05-26T01:57:29.158Z,97724.44
2019-05-26T01:59:30.805Z,97721.03
2019-05-26T02:01:32.528Z,97723.67
2019-05-26T02:03:34.196Z,97724.13
2019-05-26T02:05:35.853Z,97697.73
2019-05-26T02:07:37.503Z,97716.64
2019-05-26T02:09:39.087Z,97723.11
2019-05-26T02:11:40.775Z,97719.91
2019-05-26T02:13:42.496Z,97715.63
2019-05-26T02:15:44.312Z,97724.02
2019-05-26T02:17:45.969Z,97729.44
2019-05-26T02:19:47.601Z,97725.51
2019-05-26T02:21:49.222Z,97730.97
2019-05-26T02:23:50.850Z,97731.99
2019-05-26T02:25:52.450Z,97738.09
2019-05-26T02:27:54.066Z,97736.28
2019-05-26T02:29:55.699Z,97742.08
2019-05-26T02:31:57.386Z,97738.86
2019-05-26T02:33:59.062Z,97738.36
2019-05-26T02:36:00.675Z,97738.67
2019-05-26T02:38:02.356Z,97740.91
2019-05-26T02:40:03.943Z,97740.45
2019-05-26T02:42:05.583Z,97732.44
2019-05-26T02:44:07.160Z,97720.45
2019-05-26T02:46:08.820Z,97721.37
2019-05-26T02:48:10.478Z,97723.59
2019-05-26T02:50:12.177Z,97725.53
2019-05-26T02:52:13.962Z,97730.75
2019-05-26T02:54:15.706Z,97721.68
2019-05-26T02:56:17.329Z,97726.52
2019-05-26T02:58:18.982Z,97721.17
2019-05-26T03:00:20.619Z,97713.77
2019-05-26T03:02:22.192Z,97722.80
2019-05-26T03:04:23.853Z,97715.65
2019-05-26T03:06:25.545Z,97716.59
2019-05-26T03:08:27.260Z,97716.09
2019-05-26T03:10:28.900Z,97722.13
2019-05-26T03:12:30.565Z,97719.59
2019-05-26T03:14:32.247Z,97717.98
2019-05-26T03:16:33.822Z,97720.16
2019-05-26T03:18:35.400Z,97713.33
2019-05-26T03:20:37.106Z,97713.87
2019-05-26T03:22:38.798Z,97722.06
2019-05-26T03:24:40.394Z,97725.14
2019-05-26T03:26:42.050Z,97706.95
2019-05-26T03:28:43.759Z,97724.45
2019-05-26T03:30:45.411Z,97718.91
2019-05-26T03:32:47.058Z,97716.44
2019-05-26T03:34:48.879Z,97671.73
2019-05-26T03:36:50.660Z,97717.10
2019-05-26T03:38:52.338Z,97712.42
2019-05-26T03:40:53.988Z,97713.38
2019-05-26T03:42:55.646Z,97716.44
2019-05-26T03:44:57.299Z,97717.27
2019-05-26T03:46:59.022Z,97721.58
2019-05-26T03:49:00.683Z,97728.47
2019-05-26T03:51:02.345Z,97726.81
2019-05-26T03:53:04.046Z,97727.50
2019-05-26T03:55:05.719Z,97724.38
2019-05-26T03:57:07.352Z,97725.50
2019-05-26T03:59:09.041Z,97727.52
2019-05-26T04:01:10.741Z,97726.59
2019-05-26T04:03:12.383Z,97733.16
2019-05-26T04:05:14.067Z,97729.59
2019-05-26T04:07:15.671Z,97727.28
2019-05-26T04:09:17.372Z,97729.64
2019-05-26T04:11:19.111Z,97719.56
2019-05-26T04:13:20.890Z,97724.08
2019-05-26T04:15:22.522Z,97718.86
2019-05-26T04:17:24.240Z,97711.92
2019-05-26T04:19:25.901Z,97703.23
2019-05-26T04:21:27.542Z,97700.10
2019-05-26T04:23:29.202Z,97696.31
2019-05-26T04:25:30.799Z,97704.62
2019-05-26T04:27:32.484Z,97698.92
2019-05-26T04:29:34.131Z,97700.27
2019-05-26T04:31:35.832Z,97695.15
2019-05-26T04:33:37.499Z,97700.29
2019-05-26T04:35:39.135Z,97704.48
2019-05-26T04:37:40.831Z,97710.85
2019-05-26T04:39:42.468Z,97667.58
2019-05-26T04:41:44.046Z,97707.94
2019-05-26T04:43:45.823Z,97703.69
2019-05-26T04:45:47.494Z,97700.77
2019-05-26T04:47:49.124Z,97706.34
2019-05-26T04:49:50.786Z,97706.36
2019-05-26T04:51:52.436Z,97703.81
2019-05-26T04:53:54.074Z,97701.35
2019-05-26T04:55:55.729Z,97705.68
2019-05-26T04:57:57.358Z,97705.38
2019-05-26T04:59:59.018Z,97699.92
2019-05-26T05:02:00.615Z,97700.48
2019-05-26T05:04:02.323Z,97695.32
2019-05-26T05:06:04.104Z,97697.86
2019-05-26T05:08:05.765Z,97692.16
2019-05-26T05:10:07.426Z,97690.84
2019-05-26T05:12:09.088Z,97686.55
2019-05-26T05:14:10.714Z,97690.00
2019-05-26T05:16:12.478Z,97685.73
2019-05-26T05:18:14.182Z,97716.89
2019-05-26T05:20:15.752Z,97683.17
2019-05-26T05:22:17.404Z,97684.00
2019-05-26T05:24:19.031Z,97687.42
2019-05-26T05:26:20.655Z,97688.20
2019-05-26T05:28:22.306Z,97689.03
2019-05-26T05:30:23.938Z,97687.03
2019-05-26T05:32:25.626Z,97654.35
2019-05-26T05:34:27.256Z,97695.54
2019-05-26T05:36:28.909Z,97695.20
2019-05-26T05:38:30.562Z,97697.17
2019-05-26T05:40:32.254Z,97700.83
2019-05-26T05:42:33.942Z,97695.48
2019-05-26T05:44:35.593Z,97650.84
2019-05-26T05:46:37.194Z,97696.84
2019-05-26T05:48:38.774Z,97702.08
2019-05-26T05:50:40.422Z,97701.48
2019-05-26T05:52:42.105Z,97700.00
2019-05-26T05:54:43.690Z,97700.52
2019-05-26T05:56:45.325Z,97702.08
2019-05-26T05:58:47.364Z,97701.00
2019-05-26T06:00:48.991Z,97704.94
2019-05-26T06:02:50.770Z,97706.05
2019-05-26T06:04:52.444Z,97714.91
2019-05-26T06:06:54.070Z,97708.27
2019-05-26T06:08:55.895Z,97712.05
2019-05-26T06:10:57.500Z,97712.48
2019-05-26T06:12:59.114Z,97712.91
2019-05-26T06:15:00.746Z,97709.13
2019-05-26T06:17:02.662Z,97713.05
2019-05-26T06:19:04.248Z,97709.64
2019-05-26T06:21:05.938Z,97714.80
2019-05-26T06:23:07.615Z,97710.06
2019-05-26T06:25:09.248Z,97707.03
2019-05-26T06:27:10.900Z,97705.08
2019-05-26T06:29:12.636Z,97706.87
2019-05-26T06:31:14.290Z,97708.57
2019-05-26T06:33:15.918Z,97714.26
2019-05-26T06:35:17.675Z,97708.66
2019-05-26T06:37:19.246Z,97713.41
2019-05-26T06:39:20.896Z,97715.95
2019-05-26T06:41:33.033Z,97715.91
2019-05-26T06:43:24.265Z,97714.62
2019-05-26T06:45:26.014Z,97715.63
2019-05-26T06:47:27.804Z,97709.50
2019-05-26T06:49:29.478Z,97708.64
2019-05-26T06:51:31.136Z,97706.55
2019-05-26T06:53:32.786Z,97702.24
2019-05-26T06:55:34.490Z,97701.38
2019-05-26T06:57:36.074Z,97702.14
2019-05-26T06:59:37.762Z,97704.57
2019-05-26T07:01:39.362Z,97698.84
2019-05-26T07:03:40.960Z,97697.91
2019-05-26T07:05:42.634Z,97702.62
2019-05-26T07:07:44.210Z,97697.03
2019-05-26T07:09:46.525Z,97698.69
2019-05-26T07:11:57.013Z,97695.79
2019-05-26T07:13:49.801Z,97686.03
2019-05-26T07:15:51.533Z,97690.72
2019-05-26T07:17:53.413Z,97686.39
2019-05-26T07:19:55.198Z,97690.58
2019-05-26T07:21:57.651Z,97690.98
2019-05-26T07:23:59.722Z,97691.58
2019-05-26T07:26:01.306Z,97689.55
2019-05-26T07:28:02.929Z,97690.50
2019-05-26T07:30:04.703Z,97685.36
2019-05-26T07:32:06.388Z,97687.16
2019-05-26T07:34:08.040Z,97692.16
2019-05-26T07:36:09.670Z,97688.31
2019-05-26T07:40:12.727Z,97687.94
2019-05-26T07:42:14.638Z,97692.28
2019-05-26T07:44:16.878Z,97694.46
2019-05-26T07:46:19.118Z,97688.48
2019-05-26T07:48:20.771Z,97687.22
2019-05-26T07:50:22.411Z,97670.55
2019-05-26T07:52:24.236Z,97690.30
2019-05-26T07:54:26.233Z,97687.38
2019-05-26T07:56:27.642Z,97671.92
2019-05-26T07:58:29.357Z,97688.23
2019-05-26T08:00:31.447Z,97689.51
2019-05-26T08:02:33.117Z,97692.92
2019-05-26T08:04:34.756Z,97687.88
2019-05-26T08:06:36.416Z,97685.78
2019-05-26T08:08:38.418Z,97682.78
2019-05-26T08:10:40.465Z,97681.52
2019-05-26T08:12:42.082Z,97682.41
2019-05-26T08:14:43.710Z,97679.86
2019-05-26T08:16:45.337Z,97679.44
2019-05-26T08:18:47.021Z,97673.45
2019-05-26T08:20:48.901Z,97668.77
2019-05-26T08:22:50.489Z,97670.89
2019-05-26T08:24:52.144Z,97669.62
2019-05-26T08:26:53.773Z,97660.66
2019-05-26T08:28:55.485Z,97665.36
2019-05-26T08:30:57.171Z,97664.93
2019-05-26T08:32:58.795Z,97662.32
2019-05-26T08:35:00.515Z,97653.84
2019-05-26T08:37:02.290Z,97659.74
2019-05-26T08:39:04.067Z,97652.13
2019-05-26T08:41:05.786Z,97653.84
2019-05-26T08:43:07.518Z,97654.70
2019-05-26T08:45:09.396Z,97655.55
2019-05-26T08:47:11.455Z,97649.56
2019-05-26T08:49:13.064Z,97649.52
2019-05-26T08:51:14.828Z,97648.70
2019-05-26T08:53:16.515Z,97654.70
2019-05-26T08:55:18.175Z,97647.85
2019-05-26T08:57:19.825Z,97649.62
2019-05-26T08:59:22.143Z,97645.37
2019-05-26T09:01:23.722Z,97650.06
2019-05-26T09:03:25.487Z,97646.72
2019-05-26T09:05:27.127Z,97643.34
2019-05-26T09:07:28.834Z,97602.02
2019-05-26T09:09:30.923Z,97640.38
2019-05-26T09:11:32.589Z,97634.02
2019-05-26T09:13:34.227Z,97629.36
2019-05-26T09:15:35.842Z,97629.86
2019-05-26T09:17:37.613Z,97628.16
2019-05-26T09:19:39.389Z,97624.78
2019-05-26T09:21:40.995Z,97621.43
2019-05-26T09:23:42.843Z,97620.15
2019-05-26T09:25:46.555Z,97615.91
2019-05-26T09:27:46.402Z,97613.84
2019-05-26T09:29:48.078Z,97619.33
2019-05-26T09:31:49.847Z,97617.23
2019-05-26T09:33:51.449Z,97611.72
2019-05-26T09:35:53.110Z,97578.41
2019-05-26T09:37:54.868Z,97618.97
2019-05-26T09:39:56.494Z,97610.13
2019-05-26T09:41:58.204Z,97614.39
2019-05-26T09:43:59.886Z,97615.30
2019-05-26T09:46:01.669Z,97604.20
2019-05-26T09:48:03.271Z,97609.76
2019-05-26T09:50:05.535Z,97615.31
2019-05-26T09:52:07.172Z,97551.62
2019-05-26T09:54:12.516Z,97610.13
2019-05-26T09:56:11.034Z,97607.12
2019-05-26T09:58:13.292Z,97593.90
2019-05-26T10:00:16.209Z,97592.50
2019-05-26T10:02:16.947Z,97596.67
2019-05-26T10:04:18.550Z,97591.64
2019-05-26T10:06:20.237Z,97590.90
2019-05-26T10:08:22.022Z,97588.80
2019-05-26T10:10:23.752Z,97587.59
2019-05-26T10:12:25.573Z,97575.33
2019-05-26T10:14:27.207Z,97583.49
2019-05-26T10:16:29.027Z,97583.09
2019-05-26T10:18:30.761Z,97588.73
2019-05-26T10:20:32.399Z,97585.31
2019-05-26T10:22:34.039Z,97579.42
2019-05-26T10:24:35.638Z,97587.20
2019-05-26T10:26:37.246Z,97574.06
2019-05-26T10:28:39.074Z,97579.84
2019-05-26T10:30:40.769Z,97584.87
2019-05-26T10:32:42.509Z,97583.09
2019-05-26T10:34:44.295Z,97580.83
2019-05-26T10:36:46.320Z,97575.19
2019-05-26T10:38:47.918Z,97579.42
2019-05-26T10:40:49.940Z,97594.66
2019-05-26T10:42:51.588Z,97555.80
2019-05-26T10:44:53.271Z,97579.23
2019-05-26T10:46:54.917Z,97570.15
2019-05-26T10:48:56.635Z,97573.48
2019-05-26T10:50:58.621Z,97569.64
2019-05-26T10:53:00.489Z,97566.73
2019-05-26T10:55:02.070Z,97570.66
2019-05-26T10:57:03.707Z,97548.48
2019-05-26T10:59:05.330Z,97560.08
2019-05-26T11:01:07.015Z,97534.66
2019-05-26T11:03:09.267Z,97559.78
2019-05-26T11:05:10.895Z,97555.16
2019-05-26T11:07:12.621Z,97555.70
2019-05-26T11:09:14.276Z,97549.84
2019-05-26T11:11:15.902Z,97542.22
2019-05-26T11:13:17.625Z,97548.28
2019-05-26T11:15:19.314Z,97532.08
2019-05-26T11:17:20.992Z,97534.66
2019-05-26T11:19:22.677Z,97537.66
2019-05-26T11:21:24.542Z,97531.78
2019-05-26T11:23:26.543Z,97522.03
2019-05-26T11:25:28.302Z,97524.20
2019-05-26T11:27:29.927Z,97515.25
2019-05-26T11:29:31.562Z,97525.12
2019-05-26T11:31:33.332Z,97519.16
2019-05-26T11:33:35.015Z,97517.91
2019-05-26T11:35:36.799Z,97518.91
2019-05-26T11:37:38.549Z,97510.75
2019-05-26T11:39:40.178Z,97514.92
2019-05-26T11:41:41.769Z,97501.56
2019-05-26T11:43:43.475Z,97506.75
2019-05-26T11:45:45.136Z,97506.37
2019-05-26T11:47:46.818Z,97510.33
2019-05-26T11:49:49.250Z,97503.36
2019-05-26T11:51:51.025Z,97502.88
2019-05-26T11:53:52.793Z,97512.69
2019-05-26T11:56:05.289Z,97495.93
2019-05-26T11:58:06.949Z,97495.38
2019-05-26T12:00:09.498Z,97490.06
2019-05-26T12:02:10.728Z,97492.09
2019-05-26T12:04:13.058Z,97488.32
2019-05-26T12:06:14.846Z,97485.91
2019-05-26T12:08:16.543Z,97476.27
2019-05-26T12:10:18.940Z,97472.31
2019-05-26T12:12:20.578Z,97476.27
2019-05-26T12:14:34.345Z,97469.63
2019-05-26T12:16:24.163Z,97474.89
2019-05-26T12:18:25.791Z,97474.14
2019-05-26T12:20:28.125Z,97434.84
2019-05-26T12:22:29.725Z,97461.94
2019-05-26T12:24:31.358Z,97503.39
2019-05-26T12:26:45.524Z,97468.36
2019-05-26T12:28:49.422Z,97459.62
2019-05-26T12:30:50.996Z,97452.72
2019-05-26T12:32:52.665Z,97412.17
2019-05-26T12:34:54.263Z,97453.73
2019-05-26T12:36:55.918Z,97453.46
2019-05-26T12:38:57.561Z,97421.02
2019-05-26T12:40:59.207Z,97449.34
2019-05-26T12:43:00.790Z,97441.99
2019-05-26T12:45:02.395Z,97446.71
2019-05-26T12:47:04.048Z,97448.06
2019-05-26T12:49:06.439Z,97430.23
2019-05-26T12:51:08.365Z,97430.23
2019-05-26T12:53:09.946Z,97432.30
2019-05-26T12:55:11.559Z,97429.81
2019-05-26T12:57:13.763Z,97427.58
2019-05-26T12:59:15.483Z,97438.95
2019-05-26T13:01:17.729Z,97438.62
2019-05-26T13:03:19.306Z,97439.87
2019-05-26T13:05:20.879Z,97433.50
2019-05-26T13:07:22.592Z,97434.41
2019-05-26T13:09:24.469Z,97430.15
2019-05-26T13:11:26.161Z,97427.61
2019-05-26T13:13:28.049Z,97429.40
2019-05-26T13:15:29.735Z,97427.70
2019-05-26T13:17:31.575Z,97426.51
2019-05-26T13:19:33.227Z,97417.28
2019-05-26T13:21:35.147Z,97427.49
2019-05-26T13:23:36.778Z,97425.81
2019-05-26T13:25:38.446Z,97430.56
2019-05-26T13:27:40.258Z,97420.84
2019-05-26T13:29:42.162Z,97415.34
2019-05-26T13:31:43.796Z,97412.85
2019-05-26T13:33:45.390Z,97422.36
2019-05-26T13:35:48.107Z,97416.88
2019-05-26T13:37:49.763Z,97413.48
2019-05-26T13:39:51.527Z,97413.03
2019-05-26T13:41:53.543Z,97409.19
2019-05-26T13:43:55.275Z,97414.41
2019-05-26T13:45:57.064Z,97412.33
2019-05-26T13:47:58.732Z,97390.64
2019-05-26T13:50:00.367Z,97409.42
2019-05-26T13:52:01.942Z,97413.26
2019-05-26T13:54:03.657Z,97410.28
2019-05-26T13:56:05.340Z,97408.65
2019-05-26T13:58:07.101Z,97407.41
2019-05-26T14:00:08.752Z,97404.48
2019-05-26T14:02:10.407Z,97402.80
2019-05-26T14:04:12.020Z,97403.68
2019-05-26T14:06:13.813Z,97406.72
2019-05-26T14:08:15.583Z,97409.73
2019-05-26T14:10:17.163Z,97402.97
2019-05-26T14:12:18.762Z,97406.38
2019-05-26T14:14:20.432Z,97409.80
2019-05-26T14:16:22.168Z,97386.49
2019-05-26T14:18:23.799Z,97404.00
2019-05-26T14:20:25.435Z,97404.00
2019-05-26T14:22:27.043Z,97399.84
2019-05-26T14:24:28.772Z,97401.94
2019-05-26T14:26:30.419Z,97402.88
2019-05-26T14:28:32.115Z,97393.47
2019-05-26T14:30:33.782Z,97393.55
2019-05-26T14:32:35.420Z,97388.09
2019-05-26T14:34:37.243Z,97390.66
2019-05-26T14:36:38.874Z,97390.77
2019-05-26T14:38:43.481Z,97394.18
2019-05-26T14:40:42.886Z,97384.86
2019-05-26T14:42:44.526Z,97389.58
2019-05-26T14:44:46.150Z,97381.57
2019-05-26T14:46:47.732Z,97384.14
2019-05-26T14:48:49.394Z,97383.35
2019-05-26T14:50:51.020Z,97385.05
2019-05-26T14:52:52.667Z,97377.84
2019-05-26T14:54:54.261Z,97377.47
2019-05-26T14:56:55.947Z,97375.37
2019-05-26T14:58:57.958Z,97376.65
2019-05-26T15:00:59.585Z,97382.18
2019-05-26T15:03:01.210Z,97369.44
2019-05-26T15:05:02.960Z,97372.48
2019-05-26T15:07:04.553Z,97379.74
2019-05-26T15:09:06.298Z,97378.11
2019-05-26T15:11:08.083Z,97381.13
2019-05-26T15:13:09.961Z,97380.31
2019-05-26T15:15:11.596Z,97371.83
2019-05-26T15:17:13.413Z,97371.83
2019-05-26T15:19:15.010Z,97362.89
2019-05-26T15:21:18.233Z,97365.92
2019-05-26T15:23:18.566Z,97370.61
2019-05-26T15:25:20.175Z,97362.97
2019-05-26T15:27:22.189Z,97362.13
2019-05-26T15:29:23.866Z,97363.42
2019-05-26T15:31:25.511Z,97371.97
2019-05-26T15:33:27.211Z,97359.30
2019-05-26T15:35:28.814Z,97363.91
2019-05-26T15:37:30.972Z,97368.61
2019-05-26T15:39:32.643Z,97366.11
2019-05-26T15:41:34.226Z,97367.00
2019-05-26T15:43:35.853Z,97365.35
2019-05-26T15:45:37.502Z,97359.86
2019-05-26T15:47:39.341Z,97361.12
2019-05-26T15:49:40.973Z,97358.49
2019-05-26T15:51:42.673Z,97360.19
2019-05-26T15:53:44.302Z,97354.30
2019-05-26T15:55:45.918Z,97363.67
2019-05-26T15:57:47.720Z,97356.46
2019-05-26T15:59:49.422Z,97357.73
2019-05-26T16:01:51.049Z,97353.97
2019-05-26T16:03:52.674Z,97353.53
2019-05-26T16:05:54.504Z,97352.30
2019-05-26T16:07:56.182Z,97348.45
2019-05-26T16:09:57.781Z,97350.66
2019-05-26T16:11:59.532Z,97347.70
2019-05-26T16:14:01.286Z,97351.60
2019-05-26T16:16:02.810Z,97351.20
2019-05-26T16:18:04.447Z,97352.95
2019-05-26T16:20:06.395Z,97350.42
2019-05-26T16:22:08.035Z,97352.56
2019-05-26T16:24:09.783Z,97350.93
2019-05-26T16:26:11.467Z,97351.80
2019-05-26T16:28:13.066Z,97346.34
2019-05-26T16:30:14.695Z,97349.34
2019-05-26T16:32:18.775Z,97355.45
2019-05-26T16:34:18.038Z,97353.28
2019-05-26T16:36:21.355Z,97353.33
2019-05-26T16:38:21.498Z,97343.22
2019-05-26T16:40:23.175Z,97347.00
2019-05-26T16:42:25.434Z,97349.50
2019-05-26T16:44:27.062Z,97346.40
2019-05-26T16:46:28.731Z,97345.75
2019-05-26T16:48:31.056Z,97343.94
2019-05-26T16:50:33.044Z,97343.34
2019-05-26T16:52:34.480Z,97338.81
2019-05-26T16:54:36.110Z,97341.11
2019-05-26T16:56:37.894Z,97341.50
2019-05-26T16:58:39.487Z,97338.12
2019-05-26T17:00:41.124Z,97337.98
2019-05-26T17:02:42.803Z,97338.50
2019-05-26T17:04:44.498Z,97337.11
2019-05-26T17:06:46.367Z,97334.17
2019-05-26T17:08:48.043Z,97340.52
2019-05-26T17:10:49.624Z,97335.73
2019-05-26T17:12:51.388Z,97332.81
2019-05-26T17:14:52.977Z,97343.40
2019-05-26T17:16:54.608Z,97347.80
2019-05-26T17:18:56.825Z,97348.23
2019-05-26T17:20:58.769Z,97351.30
2019-05-26T17:23:00.578Z,97346.53
2019-05-26T17:25:02.261Z,97347.28
2019-05-26T17:27:03.919Z,97331.82
2019-05-26T17:29:05.692Z,97349.75
2019-05-26T17:31:07.382Z,97344.06
2019-05-26T17:33:09.022Z,97346.38
2019-05-26T17:35:10.674Z,97342.92
2019-05-26T17:37:13.010Z,97347.77
2019-05-26T17:39:14.682Z,97344.11
2019-05-26T17:41:16.319Z,97349.58
2019-05-26T17:43:18.036Z,97339.47
2019-05-26T17:45:19.710Z,97346.13
2019-05-26T17:47:29.745Z,97350.49
2019-05-26T17:49:23.500Z,97344.80
2019-05-26T17:51:25.130Z,97343.29
2019-05-26T17:53:27.014Z,97343.56
2019-05-26T17:55:28.618Z,97339.48
2019-05-26T17:57:30.253Z,97339.98
2019-05-26T17:59:31.882Z,97340.48
2019-05-26T18:01:33.559Z,97362.73
2019-05-26T18:03:35.155Z,97337.50
2019-05-26T18:05:37.366Z,97337.37
2019-05-26T18:07:39.013Z,97332.93
2019-05-26T18:09:44.662Z,97314.52
2019-05-26T18:11:42.324Z,97329.02
2019-05-26T18:13:46.547Z,97336.47
2019-05-26T18:15:46.134Z,97330.59
2019-05-26T18:17:48.436Z,97337.84
2019-05-26T18:19:50.135Z,97333.06
2019-05-26T18:21:51.989Z,97329.22
2019-05-26T18:23:53.633Z,97326.21
2019-05-26T18:25:55.337Z,97328.66
2019-05-26T18:27:57.009Z,97326.88
2019-05-26T18:29:58.683Z,97317.52
2019-05-26T18:32:00.528Z,97318.27
2019-05-26T18:34:02.133Z,97318.64
2019-05-26T18:36:03.730Z,97321.13
2019-05-26T18:38:05.363Z,97319.20
2019-05-26T18:40:06.972Z,97319.93
2019-05-26T18:42:08.585Z,97318.64
2019-05-26T18:44:10.167Z,97317.47
2019-05-26T18:46:11.855Z,97313.23
2019-05-26T18:48:13.454Z,97319.20
2019-05-26T18:50:15.082Z,97316.31
2019-05-26T18:52:16.792Z,97320.59
2019-05-26T18:54:18.395Z,97325.32
2019-05-26T18:56:20.040Z,97330.83
2019-05-26T18:58:21.710Z,97321.42
2019-05-26T19:00:29.898Z,97331.56
2019-05-26T19:02:25.319Z,97325.73
2019-05-26T19:04:27.040Z,97333.69
2019-05-26T19:06:28.708Z,97333.48
2019-05-26T19:08:30.310Z,97337.93
2019-05-26T19:10:31.953Z,97335.73
2019-05-26T19:12:33.583Z,97335.70
2019-05-26T19:14:35.238Z,97337.75
2019-05-26T19:16:37.083Z,97338.61
2019-05-26T19:18:38.860Z,97338.12
2019-05-26T19:20:40.942Z,97331.73
2019-05-26T19:22:42.638Z,97332.48
2019-05-26T19:24:44.290Z,97333.45
2019-05-26T19:26:45.964Z,97336.67
2019-05-26T19:28:47.590Z,97334.64
2019-05-26T19:30:49.854Z,97333.54
2019-05-26T19:32:51.530Z,97333.94
2019-05-26T19:34:53.104Z,97336.42
2019-05-26T19:36:54.704Z,97335.71
2019-05-26T19:38:56.393Z,97335.16
2019-05-26T19:40:58.446Z,97338.91
2019-05-26T19:43:00.121Z,97341.47
2019-05-26T19:45:01.839Z,97332.91
2019-05-26T19:47:03.462Z,97337.20
2019-05-26T19:49:05.134Z,97335.42
2019-05-26T19:51:06.974Z,97333.46
2019-05-26T19:53:08.768Z,97328.33
2019-05-26T19:55:10.536Z,97326.60
2019-05-26T19:57:12.170Z,97324.86
2019-05-26T19:59:13.858Z,97333.50
2019-05-26T20:01:15.510Z,97327.91
2019-05-26T20:03:17.326Z,97322.20
2019-05-26T20:05:19.007Z,97327.50
2019-05-26T20:07:20.673Z,97328.86
2019-05-26T20:09:22.310Z,97325.05
2019-05-26T20:11:24.040Z,97342.28
2019-05-26T20:13:25.683Z,97340.55
2019-05-26T20:15:27.543Z,97319.59
2019-05-26T20:17:29.799Z,97316.53
2019-05-26T20:19:31.834Z,97317.94
2019-05-26T20:21:33.484Z,97317.02
2019-05-26T20:23:35.441Z,97313.09
2019-05-26T20:25:37.085Z,97312.33
2019-05-26T20:27:38.772Z,97310.94
2019-05-26T20:29:40.380Z,97310.03
2019-05-26T20:31:42.011Z,97310.23
2019-05-26T20:33:43.771Z,97309.33
2019-05-26T20:35:45.450Z,97309.56
2019-05-26T20:37:47.078Z,97304.88
2019-05-26T20:39:48.893Z,97306.02
2019-05-26T20:41:50.572Z,97304.39
2019-05-26T20:43:52.201Z,97307.83
2019-05-26T20:45:53.875Z,97304.66
2019-05-26T20:47:55.458Z,97306.70
2019-05-26T20:49:57.082Z,97306.17
2019-05-26T20:51:58.714Z,97307.43
2019-05-26T20:54:00.405Z,97306.02
2019-05-26T20:56:02.071Z,97304.99
2019-05-26T20:58:04.474Z,97304.38
2019-05-26T21:00:06.353Z,97309.59
2019-05-26T21:02:08.127Z,97307.86
2019-05-26T21:04:09.856Z,97317.16
2019-05-26T21:06:11.676Z,97302.63
2019-05-26T21:08:13.450Z,97309.15
2019-05-26T21:10:15.116Z,97307.80
2019-05-26T21:12:16.743Z,97300.95
2019-05-26T21:14:18.366Z,97307.20
2019-05-26T21:16:19.962Z,97308.03
2019-05-26T21:18:21.725Z,97306.34
2019-05-26T21:20:23.364Z,97305.48
2019-05-26T21:22:25.428Z,97303.95
2019-05-26T21:24:27.152Z,97305.78
2019-05-26T21:26:28.786Z,97306.04
2019-05-26T21:28:30.418Z,97300.23
2019-05-26T21:30:32.180Z,97298.89
2019-05-26T21:32:33.949Z,97297.48
2019-05-26T21:34:35.623Z,97295.84
2019-05-26T21:36:37.261Z,97298.09
2019-05-26T21:38:38.945Z,97287.46
2019-05-26T21:40:40.614Z,97293.03
2019-05-26T21:42:42.186Z,97289.03
2019-05-26T21:44:43.814Z,97295.00
2019-05-26T21:46:45.442Z,97291.48
2019-05-26T21:48:47.818Z,97294.09
2019-05-26T21:50:49.491Z,97293.48
2019-05-26T21:52:51.129Z,97281.30
2019-05-26T21:54:52.806Z,97288.50
2019-05-26T21:56:54.854Z,97289.14
2019-05-26T21:58:56.493Z,97285.02
2019-05-26T22:00:58.945Z,97281.92
2019-05-26T22:03:00.586Z,97240.90
2019-05-26T22:05:02.370Z,97280.67
2019-05-26T22:07:04.353Z,97281.17
2019-05-26T22:09:06.137Z,97282.44
2019-05-26T22:11:07.800Z,97273.88
2019-05-26T22:13:09.578Z,97279.16
2019-05-26T22:15:11.257Z,97279.36
2019-05-26T22:17:12.926Z,97273.37
2019-05-26T22:19:14.531Z,97276.52
2019-05-26T22:21:16.204Z,97282.03
2019-05-26T22:23:17.951Z,97279.50
2019-05-26T22:25:19.646Z,97280.70
2019-05-26T22:27:21.270Z,97275.09
2019-05-26T22:29:22.903Z,97277.09
2019-05-26T22:31:24.642Z,97228.92
2019-05-26T22:33:26.294Z,97270.21
2019-05-26T22:35:27.922Z,97268.38
2019-05-26T22:37:29.499Z,97269.94
2019-05-26T22:39:31.135Z,97260.15
2019-05-26T22:41:32.734Z,97266.14
2019-05-26T22:43:34.409Z,97262.23
2019-05-26T22:45:36.261Z,97263.58
2019-05-26T22:47:37.932Z,97263.69
2019-05-26T22:49:39.526Z,97259.26
2019-05-26T22:51:41.186Z,97259.17
2019-05-26T22:53:43.583Z,97260.62
2019-05-26T22:55:45.204Z,97259.90
2019-05-26T22:57:47.233Z,97253.70
2019-05-26T22:59:48.834Z,97249.58
2019-05-26T23:01:50.471Z,97251.64
2019-05-26T23:03:52.141Z,97244.34
2019-05-26T23:05:53.766Z,97248.33
2019-05-26T23:07:55.408Z,97247.74
2019-05-26T23:09:57.041Z,97247.07
2019-05-26T23:11:58.699Z,97249.58
2019-05-26T23:14:00.515Z,97250.22
2019-05-26T23:16:02.146Z,97243.17
2019-05-26T23:18:04.015Z,97245.73
2019-05-26T23:20:05.852Z,97246.12
2019-05-26T23:22:07.499Z,97241.33
2019-05-26T23:24:09.342Z,97242.30
2019-05-26T23:26:10.991Z,97240.34
2019-05-26T23:28:12.567Z,97241.66
2019-05-26T23:30:14.214Z,97244.36
2019-05-26T23:32:15.855Z,97243.47
2019-05-26T23:34:17.479Z,97240.83
2019-05-26T23:36:19.142Z,97240.41
2019-05-26T23:38:20.799Z,97240.96
2019-05-26T23:40:22.459Z,97238.53
2019-05-26T23:42:24.094Z,97235.86
2019-05-26T23:44:25.743Z,97238.92
2019-05-26T23:46:27.370Z,97235.56
2019-05-26T23:48:28.994Z,97228.05
2019-05-26T23:50:30.701Z,97227.37
2019-05-26T23:52:32.329Z,97238.37